createdAt,value
2022-08-28T00:01:03.128Z,101921.75
2022-08-28T00:03:32.263Z,101920.88
2022-08-28T00:06:00.991Z,101924.38
2022-08-28T00:08:30.436Z,101928.78
2022-08-28T00:10:58.719Z,101927.91
2022-08-28T00:13:30.091Z,101929.69
2022-08-28T00:16:01.738Z,101930.56
2022-08-28T00:18:31.873Z,101933.22
2022-08-28T00:21:01.625Z,101935.84
2022-08-28T00:23:40.288Z,101940.25
2022-08-28T00:26:32.494Z,101934.09
2022-08-28T00:29:01.134Z,101934.97
2022-08-28T00:31:29.377Z,101935.84
2022-08-28T00:33:57.532Z,101933.22
2022-08-28T00:36:26.094Z,101934.97
2022-08-28T00:38:54.188Z,101940.25
2022-08-28T00:41:24.931Z,101926.13
2022-08-28T00:44:14.681Z,101928.78
2022-08-28T00:46:45.472Z,101921.75
2022-08-28T00:49:21.924Z,101921.75
2022-08-28T00:52:08.160Z,101927.03
2022-08-28T00:54:39.867Z,101915.59
2022-08-28T00:57:14.801Z,101922.66
2022-08-28T00:59:44.313Z,101927.91
2022-08-28T01:02:17.219Z,101917.38
2022-08-28T01:04:46.229Z,101921.75
2022-08-28T01:07:15.579Z,101920.88
2022-08-28T01:09:47.750Z,101921.75
2022-08-28T01:12:20.973Z,101924.41
2022-08-28T01:14:54.584Z,101926.16
2022-08-28T01:17:25.335Z,101922.66
2022-08-28T01:19:58.288Z,101920.84
2022-08-28T01:22:38.186Z,101919.97
2022-08-28T01:25:11.379Z,101927.91
2022-08-28T01:27:41.895Z,101926.16
2022-08-28T01:30:12.386Z,101921.75
2022-08-28T01:32:44.237Z,101915.56
2022-08-28T01:35:15.994Z,101918.19
2022-08-28T01:37:44.437Z,101914.69
2022-08-28T01:40:20.340Z,101914.69
2022-08-28T01:42:48.549Z,101911.19
2022-08-28T01:45:20.561Z,101911.19
2022-08-28T01:47:51.363Z,101909.41
2022-08-28T01:50:22.192Z,101916.44
2022-08-28T01:52:50.401Z,101909.41
2022-08-28T01:55:20.544Z,101913.78
2022-08-28T01:57:54.999Z,101914.66
2022-08-28T02:00:27.620Z,101918.16
2022-08-28T02:02:58.222Z,101920.81
2022-08-28T02:05:29.814Z,101921.69
2022-08-28T02:07:58.880Z,101924.31
2022-08-28T02:10:31.167Z,101927.81
2022-08-28T02:13:00.896Z,101928.69
2022-08-28T02:15:31.295Z,101928.69
2022-08-28T02:18:00.867Z,101921.66
2022-08-28T02:20:30.042Z,101921.69
2022-08-28T02:22:59.471Z,101922.56
2022-08-28T02:25:30.057Z,101934.00
2022-08-28T02:27:58.855Z,101931.38
2022-08-28T02:30:27.446Z,101934.88
2022-08-28T02:32:55.674Z,101937.53
2022-08-28T02:35:24.959Z,101931.34
2022-08-28T02:37:55.519Z,101932.25
2022-08-28T02:40:26.218Z,101933.97
2022-08-28T02:42:55.718Z,101932.22
2022-08-28T02:45:23.948Z,101933.09
2022-08-28T02:47:54.127Z,101925.16
2022-08-28T02:50:22.605Z,101931.31
2022-08-28T02:52:51.550Z,101925.16
2022-08-28T02:55:21.724Z,101933.97
2022-08-28T02:57:50.216Z,101935.72
2022-08-28T03:00:24.207Z,101928.66
2022-08-28T03:02:53.639Z,101933.94
2022-08-28T03:05:25.153Z,101931.28
2022-08-28T03:07:54.697Z,101929.44
2022-08-28T03:10:26.304Z,101931.22
2022-08-28T03:12:54.453Z,101938.22
2022-08-28T03:15:25.783Z,101930.31
2022-08-28T03:17:54.677Z,101935.56
2022-08-28T03:20:22.967Z,101940.84
2022-08-28T03:23:08.567Z,101946.13
2022-08-28T03:25:36.776Z,101941.69
2022-08-28T03:28:05.235Z,101946.94
2022-08-28T03:30:34.873Z,101941.66
2022-08-28T03:33:03.216Z,101935.50
2022-08-28T03:35:31.708Z,101932.84
2022-08-28T03:37:59.986Z,101938.97
2022-08-28T03:40:28.256Z,101937.22
2022-08-28T03:42:56.673Z,101938.09
2022-08-28T03:45:25.037Z,101941.63
2022-08-28T03:47:55.236Z,101944.22
2022-08-28T03:50:23.581Z,101945.13
2022-08-28T03:52:52.849Z,101945.19
2022-08-28T03:55:24.870Z,101940.84
2022-08-28T03:57:53.169Z,101940.88
2022-08-28T04:00:21.422Z,101943.47
2022-08-28T04:02:49.465Z,101937.28
2022-08-28T04:05:19.163Z,101944.28
2022-08-28T04:07:47.426Z,101950.41
2022-08-28T04:10:15.757Z,101946.00
2022-08-28T04:12:44.681Z,101950.38
2022-08-28T04:15:15.164Z,101954.75
2022-08-28T04:17:43.336Z,101955.63
2022-08-28T04:20:12.381Z,101955.63
2022-08-28T04:22:41.876Z,101961.81
2022-08-28T04:25:10.670Z,101960.06
2022-08-28T04:27:38.903Z,101960.13
2022-08-28T04:30:10.848Z,101956.63
2022-08-28T04:32:40.041Z,101954.84
2022-08-28T04:35:12.015Z,101961.84
2022-08-28T04:37:43.745Z,101964.50
2022-08-28T04:40:14.887Z,101963.59
2022-08-28T04:42:44.957Z,101959.19
2022-08-28T04:45:13.573Z,101961.00
2022-08-28T04:47:41.719Z,101967.19
2022-08-28T04:50:12.086Z,101969.88
2022-08-28T04:52:43.179Z,101974.34
2022-08-28T04:55:12.258Z,101974.38
2022-08-28T04:57:40.391Z,101979.69
2022-08-28T05:00:11.879Z,101976.16
2022-08-28T05:02:40.040Z,101979.63
2022-08-28T05:05:09.183Z,101983.13
2022-08-28T05:07:37.294Z,101989.28
2022-08-28T05:10:07.787Z,101991.03
2022-08-28T05:12:37.335Z,101992.78
2022-08-28T05:15:07.015Z,101995.41
2022-08-28T05:17:35.238Z,101999.81
2022-08-28T05:20:05.826Z,102005.97
2022-08-28T05:22:34.347Z,101997.19
2022-08-28T05:25:02.885Z,102000.72
2022-08-28T05:27:32.357Z,102004.25
2022-08-28T05:30:02.209Z,101997.28
2022-08-28T05:32:30.553Z,101994.69
2022-08-28T05:34:58.727Z,101995.63
2022-08-28T05:37:27.681Z,101995.69
2022-08-28T05:39:55.800Z,101993.91
2022-08-28T05:42:23.974Z,101993.94
2022-08-28T05:45:00.205Z,101991.31
2022-08-28T05:47:32.625Z,101998.38
2022-08-28T05:50:01.296Z,101998.38
2022-08-28T05:52:29.857Z,101992.25
2022-08-28T05:54:58.538Z,101993.97
2022-08-28T05:57:26.628Z,101993.97
2022-08-28T05:59:54.714Z,101999.25
2022-08-28T06:02:24.228Z,101995.66
2022-08-28T06:04:53.642Z,101992.09
2022-08-28T06:07:22.099Z,101991.22
2022-08-28T06:09:50.225Z,101996.50
2022-08-28T06:12:18.358Z,101992.97
2022-08-28T06:14:46.463Z,101995.59
2022-08-28T06:17:15.092Z,101994.75
2022-08-28T06:19:44.518Z,102005.28
2022-08-28T06:22:14.783Z,102007.88
2022-08-28T06:24:43.471Z,102006.13
2022-08-28T06:27:11.594Z,102007.00
2022-08-28T06:29:40.222Z,102008.69
2022-08-28T06:32:09.047Z,102016.59
2022-08-28T06:34:37.365Z,102015.66
2022-08-28T06:37:07.935Z,102014.72
2022-08-28T06:39:36.068Z,102019.94
2022-08-28T06:42:05.436Z,102016.34
2022-08-28T06:44:33.695Z,102025.09
2022-08-28T06:47:03.055Z,102019.72
2022-08-28T06:49:31.184Z,102019.69
2022-08-28T06:51:59.935Z,102024.88
2022-08-28T06:54:30.987Z,102022.13
2022-08-28T06:56:59.169Z,102020.31
2022-08-28T06:59:27.375Z,102021.06
2022-08-28T07:01:55.713Z,102015.63
2022-08-28T07:04:24.524Z,102018.19
2022-08-28T07:06:54.483Z,102014.56
2022-08-28T07:09:24.237Z,102018.00
2022-08-28T07:11:54.002Z,102017.84
2022-08-28T07:14:22.689Z,102012.41
2022-08-28T07:16:53.895Z,102016.66
2022-08-28T07:19:22.048Z,102020.03
2022-08-28T07:21:50.188Z,102019.84
2022-08-28T07:24:19.291Z,102019.72
2022-08-28T07:26:50.053Z,102025.72
2022-08-28T07:29:21.341Z,102022.84
2022-08-28T07:31:53.400Z,102027.03
2022-08-28T07:34:26.966Z,102029.38
2022-08-28T07:36:56.210Z,102027.38
2022-08-28T07:39:24.330Z,102030.72
2022-08-28T07:41:52.454Z,102041.81
2022-08-28T07:44:39.700Z,102044.13
2022-08-28T07:47:11.643Z,102042.22
2022-08-28T07:49:41.494Z,102039.53
2022-08-28T07:52:11.937Z,102042.09
2022-08-28T07:54:41.104Z,102049.06
2022-08-28T07:57:17.630Z,102046.19
2022-08-28T07:59:47.479Z,102043.13
2022-08-28T08:02:16.724Z,102042.78
2022-08-28T08:04:44.939Z,102048.78
2022-08-28T08:07:17.817Z,102054.03
2022-08-28T08:09:47.115Z,102051.72
2022-08-28T08:12:18.303Z,102058.34
2022-08-28T08:14:49.515Z,102053.13
2022-08-28T08:17:17.699Z,102059.47
2022-08-28T08:19:45.777Z,102066.56
2022-08-28T08:22:14.112Z,102063.72
2022-08-28T08:24:42.785Z,102066.97
2022-08-28T08:27:11.520Z,102068.41
2022-08-28T08:29:39.872Z,102070.75
2022-08-28T08:32:12.225Z,102078.50
2022-08-28T08:34:45.742Z,102073.00
2022-08-28T08:37:14.438Z,102079.25
2022-08-28T08:39:44.570Z,102076.28
2022-08-28T08:42:25.031Z,102077.63
2022-08-28T08:44:55.678Z,102067.44
2022-08-28T08:47:37.370Z,102064.72
2022-08-28T08:50:11.042Z,102077.22
2022-08-28T08:52:51.421Z,102076.19
2022-08-28T08:55:27.595Z,102074.75
2022-08-28T08:58:04.733Z,102077.59
2022-08-28T09:00:39.271Z,102073.53
2022-08-28T09:03:15.498Z,102074.06
2022-08-28T09:05:53.322Z,102076.91
2022-08-28T09:08:32.274Z,102069.38
2022-08-28T09:11:08.352Z,102075.00
2022-08-28T09:13:49.593Z,102081.03
2022-08-28T09:16:29.123Z,102081.25
2022-08-28T09:19:01.662Z,102090.56
2022-08-28T09:21:37.961Z,102086.75
2022-08-28T09:24:13.570Z,102086.66
2022-08-28T09:26:41.757Z,102094.69
2022-08-28T09:29:28.829Z,102096.47
2022-08-28T09:31:57.732Z,102097.28
2022-08-28T09:34:36.705Z,102085.38
2022-08-28T09:37:09.616Z,102092.72
2022-08-28T09:39:45.553Z,102098.00
2022-08-28T09:42:40.918Z,102089.38
2022-08-28T09:45:18.705Z,102091.06
2022-08-28T09:47:50.719Z,102103.78
2022-08-28T09:50:33.065Z,102106.53
2022-08-28T09:53:17.639Z,102113.72
2022-08-28T09:56:12.225Z,102112.88
2022-08-28T09:58:44.942Z,102111.88
2022-08-28T10:01:45.000Z,102117.00
2022-08-28T10:04:33.291Z,102108.88
2022-08-28T10:07:08.110Z,102115.34
2022-08-28T10:09:46.807Z,102106.72
2022-08-28T10:12:34.603Z,102104.72
2022-08-28T10:15:11.821Z,102098.22
2022-08-28T10:18:01.661Z,102094.13
2022-08-28T10:20:45.350Z,102097.97
2022-08-28T10:23:24.696Z,102105.13
2022-08-28T10:26:12.968Z,102102.44
2022-08-28T10:28:53.278Z,102097.44
2022-08-28T10:31:31.690Z,102094.78
2022-08-28T10:34:16.601Z,102105.97
2022-08-28T10:36:55.908Z,102106.78
2022-08-28T10:39:38.809Z,102088.38
2022-08-28T10:42:08.522Z,102098.91
2022-08-28T10:44:45.673Z,102102.81
2022-08-28T10:47:14.742Z,102100.56
2022-08-28T10:49:45.761Z,102103.50
2022-08-28T10:52:20.378Z,102107.81
2022-08-28T10:54:55.376Z,102112.19
2022-08-28T10:57:37.307Z,102105.59
2022-08-28T11:00:14.285Z,102101.03
2022-08-28T11:02:46.421Z,102098.94
2022-08-28T11:05:15.759Z,102112.44
2022-08-28T11:07:49.550Z,102103.13
2022-08-28T11:10:43.888Z,102098.06
2022-08-28T11:13:13.067Z,102099.44
2022-08-28T11:15:54.352Z,102098.44
2022-08-28T11:19:03.546Z,102106.16
2022-08-28T11:21:37.969Z,102097.25
2022-08-28T11:24:12.114Z,102102.50
2022-08-28T11:26:59.106Z,102096.88
2022-08-28T11:30:07.388Z,102103.59
2022-08-28T11:32:59.831Z,102110.31
2022-08-28T11:35:44.519Z,102108.78
2022-08-28T11:38:16.445Z,102107.63
2022-08-28T11:40:58.003Z,102112.81
2022-08-28T11:43:37.421Z,102107.06
2022-08-28T11:46:29.611Z,102103.69
2022-08-28T11:49:00.728Z,102102.47
2022-08-28T11:52:03.119Z,102108.00
2022-08-28T11:54:48.351Z,102109.97
2022-08-28T11:57:21.088Z,102111.00
2022-08-28T12:00:10.501Z,102115.78
2022-08-28T12:02:56.697Z,102113.97
2022-08-28T12:05:51.760Z,102115.25
2022-08-28T12:09:13.675Z,102107.72
2022-08-28T12:12:01.440Z,102120.28
2022-08-28T12:15:17.382Z,102102.22
2022-08-28T12:17:50.260Z,102115.97
2022-08-28T12:20:29.847Z,102114.75
2022-08-28T12:23:00.818Z,102122.41
2022-08-28T12:25:37.417Z,102127.88
2022-08-28T12:28:20.110Z,102121.66
2022-08-28T12:30:57.987Z,102130.09
2022-08-28T12:33:36.263Z,102133.13
2022-08-28T12:36:07.748Z,102128.09
2022-08-28T12:38:36.266Z,102131.53
2022-08-28T12:41:04.578Z,102124.38
2022-08-28T12:43:41.603Z,102117.72
2022-08-28T12:46:28.570Z,102126.50
2022-08-28T12:48:59.693Z,102123.75
2022-08-28T12:51:34.414Z,102131.56
2022-08-28T12:54:06.357Z,102123.06
2022-08-28T12:56:37.703Z,102125.34
2022-08-28T12:59:27.156Z,102124.56
2022-08-28T13:02:04.092Z,102126.25
2022-08-28T13:04:36.292Z,102121.09
2022-08-28T13:07:11.843Z,102123.06
2022-08-28T13:09:48.611Z,102124.69
2022-08-28T13:12:22.230Z,102130.19
2022-08-28T13:15:00.307Z,102121.13
2022-08-28T13:17:52.009Z,102122.84
2022-08-28T13:20:29.464Z,102118.16
2022-08-28T13:22:58.359Z,102107.00
2022-08-28T13:25:29.996Z,102120.41
2022-08-28T13:28:04.528Z,102107.78
2022-08-28T13:30:35.447Z,102110.13
2022-08-28T13:33:20.502Z,102105.66
2022-08-28T13:35:48.777Z,102107.91
2022-08-28T13:38:19.840Z,102112.66
2022-08-28T13:40:59.815Z,102107.06
2022-08-28T13:43:31.275Z,102105.06
2022-08-28T13:45:59.478Z,102114.50
2022-08-28T13:48:30.402Z,102097.63
2022-08-28T13:51:05.029Z,102093.06
2022-08-28T13:53:35.877Z,102094.66
2022-08-28T13:56:05.052Z,102104.44
2022-08-28T13:58:33.266Z,102103.88
2022-08-28T14:01:02.070Z,102110.53
2022-08-28T14:03:38.184Z,102102.28
2022-08-28T14:06:11.896Z,102100.66
2022-08-28T14:08:41.604Z,102104.81
2022-08-28T14:11:12.435Z,102105.13
2022-08-28T14:13:47.264Z,102095.44
2022-08-28T14:16:24.811Z,102109.41
2022-08-28T14:18:54.850Z,102103.53
2022-08-28T14:21:24.431Z,102100.88
2022-08-28T14:23:52.786Z,102112.22
2022-08-28T14:26:20.910Z,102122.97
2022-08-28T14:28:49.001Z,102108.31
2022-08-28T14:31:17.270Z,102118.75
2022-08-28T14:33:46.006Z,102111.19
2022-08-28T14:36:18.102Z,102108.25
2022-08-28T14:38:46.268Z,102107.50
2022-08-28T14:41:15.262Z,102116.81
2022-08-28T14:43:43.827Z,102110.56
2022-08-28T14:46:16.772Z,102104.59
2022-08-28T14:48:45.033Z,102107.97
2022-08-28T14:51:13.421Z,102114.56
2022-08-28T14:53:42.907Z,102107.72
2022-08-28T14:56:12.393Z,102111.97
2022-08-28T14:58:40.582Z,102108.06
2022-08-28T15:01:08.808Z,102106.34
2022-08-28T15:03:38.066Z,102109.41
2022-08-28T15:06:10.254Z,102107.63
2022-08-28T15:08:39.829Z,102111.25
2022-08-28T15:11:14.293Z,102105.06
2022-08-28T15:13:48.771Z,102110.63
2022-08-28T15:16:20.096Z,102108.69
2022-08-28T15:18:49.210Z,102114.06
2022-08-28T15:21:18.743Z,102115.78
2022-08-28T15:23:47.119Z,102114.81
2022-08-28T15:26:16.541Z,102113.19
2022-08-28T15:28:44.718Z,102118.44
2022-08-28T15:31:13.211Z,102113.66
2022-08-28T15:33:45.227Z,102112.53
2022-08-28T15:36:13.946Z,102121.19
2022-08-28T15:38:59.831Z,102126.34
2022-08-28T15:41:30.509Z,102122.44
2022-08-28T15:44:01.589Z,102123.66
2022-08-28T15:46:33.526Z,102120.19
2022-08-28T15:49:02.557Z,102124.44
2022-08-28T15:51:32.271Z,102119.22
2022-08-28T15:54:01.744Z,102112.13
2022-08-28T15:56:31.323Z,102104.00
2022-08-28T15:58:59.432Z,102106.94
2022-08-28T16:01:27.680Z,102107.63
2022-08-28T16:03:55.917Z,102105.00
2022-08-28T16:06:24.238Z,102107.16
2022-08-28T16:08:52.353Z,102114.00
2022-08-28T16:11:23.020Z,102111.72
2022-08-28T16:13:53.887Z,102118.22
2022-08-28T16:16:22.630Z,102112.66
2022-08-28T16:18:50.882Z,102109.25
2022-08-28T16:21:19.846Z,102102.31
2022-08-28T16:23:48.147Z,102110.09
2022-08-28T16:26:16.715Z,102113.69
2022-08-28T16:28:45.691Z,102118.97
2022-08-28T16:31:19.114Z,102114.75
2022-08-28T16:33:49.710Z,102117.03
2022-08-28T16:36:19.475Z,102114.94
2022-08-28T16:38:52.895Z,102104.78
2022-08-28T16:41:29.220Z,102103.03
2022-08-28T16:44:00.846Z,102099.78
2022-08-28T16:46:30.772Z,102094.75
2022-08-28T16:48:59.583Z,102094.03
2022-08-28T16:51:29.407Z,102099.31
2022-08-28T16:53:58.346Z,102092.75
2022-08-28T16:56:26.721Z,102086.38
2022-08-28T16:58:55.211Z,102089.44
2022-08-28T17:01:24.537Z,102087.00
2022-08-28T17:03:55.339Z,102092.44
2022-08-28T17:06:27.043Z,102086.81
2022-08-28T17:08:57.113Z,102084.72
2022-08-28T17:11:27.646Z,102086.44
2022-08-28T17:13:56.374Z,102088.53
2022-08-28T17:16:26.702Z,102087.03
2022-08-28T17:18:56.240Z,102086.28
2022-08-28T17:21:42.443Z,102093.03
2022-08-28T17:24:12.818Z,102086.13
2022-08-28T17:26:42.405Z,102084.97
2022-08-28T17:29:11.259Z,102088.84
2022-08-28T17:31:39.695Z,102094.06
2022-08-28T17:34:10.350Z,102087.38
2022-08-28T17:36:42.113Z,102097.56
2022-08-28T17:39:13.998Z,102100.44
2022-08-28T17:41:42.554Z,102097.69
2022-08-28T17:44:10.746Z,102109.78
2022-08-28T17:46:39.540Z,102115.81
2022-08-28T17:49:09.962Z,102105.72
2022-08-28T17:51:43.617Z,102110.59
2022-08-28T17:54:13.574Z,102110.84
2022-08-28T17:56:41.933Z,102111.91
2022-08-28T17:59:10.266Z,102120.25
2022-08-28T18:01:39.012Z,102117.91
2022-08-28T18:04:08.993Z,102114.56
2022-08-28T18:06:37.458Z,102115.63
2022-08-28T18:09:06.567Z,102116.72
2022-08-28T18:11:35.482Z,102110.69
2022-08-28T18:14:04.380Z,102112.63
2022-08-28T18:16:33.764Z,102106.63
2022-08-28T18:19:02.966Z,102111.25
2022-08-28T18:21:32.643Z,102112.31
2022-08-28T18:24:00.819Z,102111.53
2022-08-28T18:26:29.434Z,102122.22
2022-08-28T18:28:58.053Z,102125.91
2022-08-28T18:31:26.649Z,102129.63
2022-08-28T18:33:55.202Z,102128.88
2022-08-28T18:36:24.173Z,102131.63
2022-08-28T18:38:53.942Z,102128.97
2022-08-28T18:41:26.971Z,102130.78
2022-08-28T18:44:10.791Z,102138.84
2022-08-28T18:46:38.997Z,102129.22
2022-08-28T18:49:07.345Z,102140.78
2022-08-28T18:51:35.635Z,102139.94
2022-08-28T18:54:05.473Z,102135.56
2022-08-28T18:56:36.044Z,102141.81
2022-08-28T18:59:05.835Z,102145.41
2022-08-28T19:01:34.122Z,102138.38
2022-08-28T19:04:02.490Z,102141.03
2022-08-28T19:06:30.652Z,102141.09
2022-08-28T19:08:58.847Z,102146.41
2022-08-28T19:11:31.290Z,102141.16
2022-08-28T19:13:59.608Z,102144.69
2022-08-28T19:16:33.437Z,102140.38
2022-08-28T19:19:02.763Z,102147.50
2022-08-28T19:21:31.201Z,102147.63
2022-08-28T19:23:59.329Z,102140.66
2022-08-28T19:26:29.596Z,102131.78
2022-08-28T19:28:58.402Z,102139.75
2022-08-28T19:31:28.118Z,102140.66
2022-08-28T19:33:57.228Z,102137.09
2022-08-28T19:36:27.090Z,102140.66
2022-08-28T19:38:55.386Z,102144.22
2022-08-28T19:41:24.245Z,102140.69
2022-08-28T19:43:53.767Z,102144.22
2022-08-28T19:46:22.278Z,102142.50
2022-08-28T19:48:51.371Z,102143.41
2022-08-28T19:51:22.928Z,102152.28
2022-08-28T19:53:57.744Z,102156.72
2022-08-28T19:56:28.057Z,102160.25
2022-08-28T19:59:00.472Z,102159.38
2022-08-28T20:01:30.432Z,102162.09
2022-08-28T20:04:00.477Z,102161.22
2022-08-28T20:06:31.831Z,102159.44
2022-08-28T20:09:00.522Z,102157.69
2022-08-28T20:11:30.364Z,102158.59
2022-08-28T20:14:04.921Z,102155.09
2022-08-28T20:16:35.706Z,102155.13
2022-08-28T20:19:04.683Z,102156.91
2022-08-28T20:21:37.768Z,102159.63
2022-08-28T20:24:08.300Z,102160.47
2022-08-28T20:26:36.683Z,102155.19
2022-08-28T20:29:09.044Z,102156.97
2022-08-28T20:31:40.325Z,102159.66
2022-08-28T20:34:09.083Z,102157.91
2022-08-28T20:36:37.653Z,102156.16
2022-08-28T20:39:07.215Z,102161.47
2022-08-28T20:41:37.968Z,102155.34
2022-08-28T20:44:09.270Z,102154.47
2022-08-28T20:46:41.315Z,102164.19
2022-08-28T20:49:11.006Z,102165.06
2022-08-28T20:51:56.518Z,102159.78
2022-08-28T20:54:29.940Z,102167.78
2022-08-28T20:57:01.811Z,102168.69
2022-08-28T20:59:39.721Z,102169.63
2022-08-28T21:02:11.231Z,102167.00
2022-08-28T21:04:43.556Z,102167.00
2022-08-28T21:07:12.798Z,102165.22
2022-08-28T21:10:05.980Z,102174.13
2022-08-28T21:12:29.686Z,102165.28
2022-08-28T21:14:59.701Z,102169.69
2022-08-28T21:17:29.891Z,102175.91
2022-08-28T21:20:00.930Z,102168.84
2022-08-28T21:22:31.701Z,102170.63
2022-08-28T21:25:00.007Z,102168.03
2022-08-28T21:27:28.384Z,102164.56
2022-08-28T21:29:59.202Z,102169.94
2022-08-28T21:32:28.319Z,102163.81
2022-08-28T21:34:56.728Z,102175.38
2022-08-28T21:37:25.221Z,102173.66
2022-08-28T21:39:53.825Z,102169.28
2022-08-28T21:42:25.033Z,102168.41
2022-08-28T21:44:54.449Z,102169.28
2022-08-28T21:47:25.211Z,102165.72
2022-08-28T21:49:55.580Z,102159.47
2022-08-28T21:52:28.773Z,102166.53
2022-08-28T21:55:01.724Z,102167.41
2022-08-28T21:57:31.018Z,102171.84
2022-08-28T21:59:59.910Z,102162.19
2022-08-28T22:02:29.926Z,102162.22
2022-08-28T22:04:58.141Z,102157.88
2022-08-28T22:07:26.314Z,102152.59
2022-08-28T22:09:54.507Z,102161.47
2022-08-28T22:12:24.595Z,102162.38
2022-08-28T22:14:52.734Z,102161.47
2022-08-28T22:17:21.302Z,102161.47
2022-08-28T22:19:51.250Z,102164.09
2022-08-28T22:22:36.895Z,102166.75
2022-08-28T22:25:06.159Z,102166.75
2022-08-28T22:27:34.615Z,102177.31
2022-08-28T22:30:02.865Z,102167.56
2022-08-28T22:32:31.005Z,102171.09
2022-08-28T22:35:00.455Z,102174.63
2022-08-28T22:37:28.644Z,102170.19
2022-08-28T22:39:58.063Z,102179.88
2022-08-28T22:42:26.541Z,102175.44
2022-08-28T22:44:54.798Z,102174.53
2022-08-28T22:47:23.307Z,102186.91
2022-08-28T22:49:51.378Z,102179.78
2022-08-28T22:52:21.079Z,102183.31
2022-08-28T22:54:53.124Z,102185.13
2022-08-28T22:57:21.723Z,102186.03
2022-08-28T22:59:50.402Z,102183.38
2022-08-28T23:02:21.629Z,102180.75
2022-08-28T23:04:55.266Z,102177.22
2022-08-28T23:07:24.720Z,102180.75
2022-08-28T23:09:53.130Z,102177.22
2022-08-28T23:12:21.452Z,102171.00
2022-08-28T23:14:49.739Z,102171.88
2022-08-28T23:17:18.707Z,102174.53
2022-08-28T23:19:48.230Z,102173.63
2022-08-28T23:22:17.483Z,102168.31
2022-08-28T23:24:48.615Z,102168.34
2022-08-28T23:27:35.865Z,102176.28
2022-08-28T23:30:07.946Z,102178.06
2022-08-28T23:32:36.061Z,102175.41
2022-08-28T23:35:07.312Z,102182.50
2022-08-28T23:37:37.512Z,102178.94
2022-08-28T23:40:11.600Z,102178.06
2022-08-28T23:42:40.669Z,102173.63
2022-08-28T23:45:10.258Z,102174.50
2022-08-28T23:47:40.191Z,102166.53
2022-08-28T23:50:14.987Z,102167.44
2022-08-28T23:52:44.277Z,102162.13
2022-08-28T23:55:16.298Z,102165.66
2022-08-28T23:57:45.816Z,102160.34
